Language: 


Des rapports , des résumés tant et plus, au choix de chacun....


Données statistiques de la station
Quotidien Rapport Janvier 2, 2018 Unités:  les deux    Anglais   Métrique
« Précédent Jour
Suivant Jour »
Quotidien Hebdomadaire Mensuel Annuel Actuel
  Haut: Bas: Moyen:
Température: TemperatureC °F /  -17.8 °C 2.2 °F /  -16.6 °C 6.9 °F /  -13.9 °C
Pt de rosée: DewpointC °F /  -17.8 °C 1.0 °F /  -17.2 °C 5.9 °F /  -14.5 °C
Humidité: Humidity % 75 % 92 %
Vitesse du vent: WindSpeedKMH mph /  0 km/h - 10.2 mph /  16.4 km/h
Rafales: WindSpeedGustKMH mph /  0 km/h - -
Vent:- - SW
Pression: PressurehPa in /  0 hPa 996.2 in /  33731.3 hPa -
Précipitation: 1.3 in /  33.02 mm    
Historical Graphs
 
 
Données statistiques pour Janvier 2, 2018
Heure Température Point de rosée Pression Vent Vitesse du vent Refales Humidité Pluie (taux horaire)
TemperatureC °F /  -17.8 °C DewpointC °F /  -17.8 °C PressurehPa in /  0 hPa Calm     Humidity % HourlyPrecipMM in /  0 mm
00:04 7.9 °F /  -13.4 °C 5.0 °F /  -15 °C 1005.0 in /  34029.3 hPa West 25.3 mph /  40.7 km/h 30.9 mph /  49.7 km/h 81 % 0.0 in /  0 mm
00:06 7.9 °F /  -13.4 °C 5.0 °F /  -15 °C 1005.0 in /  34029.3 hPa WSW 15.8 mph /  25.4 km/h 31.4 mph /  50.5 km/h 81 % 0.0 in /  0 mm
00:08 7.9 °F /  -13.4 °C 5.0 °F /  -15 °C 1005.0 in /  34029.3 hPa West 11.9 mph /  19.2 km/h 31.4 mph /  50.5 km/h 81 % 0.0 in /  0 mm
00:12 7.9 °F /  -13.4 °C 5.0 °F /  -15 °C 1005.0 in /  34029.3 hPa West 20.6 mph /  33.2 km/h 31.4 mph /  50.5 km/h 81 % 0.0 in /  0 mm
00:13 7.9 °F /  -13.4 °C 5.0 °F /  -15 °C 1005.0 in /  34029.3 hPa WSW 22.4 mph /  36 km/h 31.4 mph /  50.5 km/h 81 % 0.0 in /  0 mm
00:14 7.9 °F /  -13.4 °C 5.0 °F /  -15 °C 1005.0 in /  34029.3 hPa West 22.7 mph /  36.5 km/h 31.4 mph /  50.5 km/h 81 % 0.0 in /  0 mm
00:19 7.9 °F /  -13.4 °C 5.0 °F /  -15 °C 1005.0 in /  34029.3 hPa West 16.3 mph /  26.2 km/h 31.4 mph /  50.5 km/h 80 % 0.0 in /  0 mm
00:20 7.9 °F /  -13.4 °C 5.0 °F /  -15 °C 1005.0 in /  34029.3 hPa West 24.8 mph /  39.9 km/h 31.4 mph /  50.5 km/h 80 % 0.0 in /  0 mm
00:24 7.9 °F /  -13.4 °C 5.0 °F /  -15 °C 1005.0 in /  34029.3 hPa West 22.7 mph /  36.5 km/h 31.4 mph /  50.5 km/h 80 % 0.0 in /  0 mm
00:26 7.9 °F /  -13.4 °C 5.0 °F /  -15 °C 1003.9 in /  33992.1 hPa WSW 21.6 mph /  34.8 km/h 31.4 mph /  50.5 km/h 79 % 0.0 in /  0 mm
00:31 7.9 °F /  -13.4 °C 5.0 °F /  -15 °C 1003.9 in /  33992.1 hPa WSW 24.8 mph /  39.9 km/h 30.9 mph /  49.7 km/h 79 % 0.0 in /  0 mm
00:36 7.9 °F /  -13.4 °C 4.0 °F /  -15.6 °C 1003.9 in /  33992.1 hPa WSW 16.9 mph /  27.2 km/h 30.9 mph /  49.7 km/h 78 % 0.0 in /  0 mm
00:41 7.8 °F /  -13.4 °C 4.0 °F /  -15.6 °C 1005.0 in /  34029.3 hPa WSW 24.8 mph /  39.9 km/h 27.7 mph /  44.6 km/h 78 % 0.0 in /  0 mm
00:44 7.8 °F /  -13.4 °C 4.0 °F /  -15.6 °C 1005.0 in /  34029.3 hPa West 17.7 mph /  28.5 km/h 25.3 mph /  40.7 km/h 78 % 0.0 in /  0 mm
00:49 7.8 °F /  -13.4 °C 4.0 °F /  -15.6 °C 1005.0 in /  34029.3 hPa West 28.5 mph /  45.9 km/h 31.7 mph /  51 km/h 77 % 0.0 in /  0 mm
00:54 7.7 °F /  -13.5 °C 4.0 °F /  -15.6 °C 1005.0 in /  34029.3 hPa WNW 16.3 mph /  26.2 km/h 31.7 mph /  51 km/h 78 % 0.0 in /  0 mm
00:59 7.7 °F /  -13.5 °C 4.0 °F /  -15.6 °C 1005.0 in /  34029.3 hPa West 12.2 mph /  19.6 km/h 28.5 mph /  45.9 km/h 78 % 0.0 in /  0 mm
01:01 7.7 °F /  -13.5 °C 4.0 °F /  -15.6 °C 1005.0 in /  34029.3 hPa WSW 23.3 mph /  37.5 km/h 26.7 mph /  43 km/h 78 % 0.0 in /  0 mm
01:06 7.7 °F /  -13.5 °C 4.0 °F /  -15.6 °C 1005.0 in /  34029.3 hPa West 10.5 mph /  16.9 km/h 26.7 mph /  43 km/h 79 % 0.0 in /  0 mm
01:11 7.6 °F /  -13.6 °C 5.0 °F /  -15 °C 1006.0 in /  34063.2 hPa WSW 12.2 mph /  19.6 km/h 23.8 mph /  38.3 km/h 80 % 0.0 in /  0 mm
01:12 7.6 °F /  -13.6 °C 5.0 °F /  -15 °C 1006.0 in /  34063.2 hPa West 24.8 mph /  39.9 km/h 24.8 mph /  39.9 km/h 80 % 0.0 in /  0 mm
01:17 7.5 °F /  -13.6 °C 5.0 °F /  -15 °C 1006.0 in /  34063.2 hPa West 16.3 mph /  26.2 km/h 24.8 mph /  39.9 km/h 81 % 0.0 in /  0 mm
01:20 7.5 °F /  -13.6 °C 5.0 °F /  -15 °C 1006.0 in /  34063.2 hPa WSW 28.0 mph /  45.1 km/h 28.0 mph /  45.1 km/h 82 % 0.0 in /  0 mm
01:22 7.5 °F /  -13.6 °C 5.0 °F /  -15 °C 1006.0 in /  34063.2 hPa WSW 20.6 mph /  33.2 km/h 28.0 mph /  45.1 km/h 82 % 0.0 in /  0 mm
01:27 7.6 °F /  -13.6 °C 5.0 °F /  -15 °C 1006.0 in /  34063.2 hPa WSW 19.5 mph /  31.4 km/h 36.4 mph /  58.6 km/h 81 % 0.0 in /  0 mm
01:31 7.6 °F /  -13.6 °C 5.0 °F /  -15 °C 1006.0 in /  34063.2 hPa West 20.9 mph /  33.6 km/h 36.4 mph /  58.6 km/h 81 % 0.0 in /  0 mm
01:32 7.6 °F /  -13.6 °C 5.0 °F /  -15 °C 1006.0 in /  34063.2 hPa West 24.8 mph /  39.9 km/h 36.4 mph /  58.6 km/h 81 % 0.0 in /  0 mm
01:37 7.8 °F /  -13.4 °C 4.0 °F /  -15.6 °C 1006.0 in /  34063.2 hPa West 17.2 mph /  27.7 km/h 25.9 mph /  41.7 km/h 79 % 0.0 in /  0 mm
01:39 7.8 °F /  -13.4 °C 4.0 °F /  -15.6 °C 1006.0 in /  34063.2 hPa West 16.9 mph /  27.2 km/h 26.2 mph /  42.2 km/h 78 % 0.0 in /  0 mm
01:44 7.8 °F /  -13.4 °C 4.0 °F /  -15.6 °C 1007.0 in /  34097 hPa West 13.0 mph /  20.9 km/h 29.9 mph /  48.1 km/h 78 % 0.0 in /  0 mm
01:49 7.9 °F /  -13.4 °C 4.0 °F /  -15.6 °C 1007.0 in /  34097 hPa NW 13.0 mph /  20.9 km/h 29.9 mph /  48.1 km/h 76 % 0.0 in /  0 mm
01:54 7.9 °F /  -13.4 °C 4.0 °F /  -15.6 °C 1007.0 in /  34097 hPa West 17.2 mph /  27.7 km/h 26.2 mph /  42.2 km/h 76 % 0.0 in /  0 mm
01:55 7.9 °F /  -13.4 °C 4.0 °F /  -15.6 °C 1007.0 in /  34097 hPa West 17.7 mph /  28.5 km/h 26.2 mph /  42.2 km/h 76 % 0.0 in /  0 mm
01:56 7.9 °F /  -13.4 °C 4.0 °F /  -15.6 °C 1007.0 in /  34097 hPa West 9.7 mph /  15.6 km/h 24.8 mph /  39.9 km/h 76 % 0.0 in /  0 mm
02:01 7.9 °F /  -13.4 °C 4.0 °F /  -15.6 °C 1007.0 in /  34097 hPa West 9.0 mph /  14.5 km/h 24.5 mph /  39.4 km/h 76 % 0.0 in /  0 mm
02:03 7.9 °F /  -13.4 °C 4.0 °F /  -15.6 °C 1007.0 in /  34097 hPa WNW 24.5 mph /  39.4 km/h 24.5 mph /  39.4 km/h 76 % 0.0 in /  0 mm
02:05 7.9 °F /  -13.4 °C 4.0 °F /  -15.6 °C 1007.0 in /  34097 hPa West 15.4 mph /  24.8 km/h 24.5 mph /  39.4 km/h 76 % 0.0 in /  0 mm
02:10 7.9 °F /  -13.4 °C 4.0 °F /  -15.6 °C 1007.0 in /  34097 hPa West 7.9 mph /  12.7 km/h 24.5 mph /  39.4 km/h 76 % 0.0 in /  0 mm
02:13 7.9 °F /  -13.4 °C 4.0 °F /  -15.6 °C 1007.0 in /  34097 hPa WSW 9.0 mph /  14.5 km/h 24.5 mph /  39.4 km/h 75 % 0.0 in /  0 mm
02:16 7.9 °F /  -13.4 °C 4.0 °F /  -15.6 °C 1007.0 in /  34097 hPa West 18.3 mph /  29.5 km/h 24.5 mph /  39.4 km/h 75 % 0.0 in /  0 mm
02:21 7.9 °F /  -13.4 °C 4.0 °F /  -15.6 °C 1007.0 in /  34097 hPa WSW 14.0 mph /  22.5 km/h 24.5 mph /  39.4 km/h 75 % 0.0 in /  0 mm
02:23 7.9 °F /  -13.4 °C 4.0 °F /  -15.6 °C 1007.0 in /  34097 hPa West 15.4 mph /  24.8 km/h 23.0 mph /  37 km/h 75 % 0.0 in /  0 mm
02:24 7.9 °F /  -13.4 °C 4.0 °F /  -15.6 °C 1007.0 in /  34097 hPa WNW 17.7 mph /  28.5 km/h 23.0 mph /  37 km/h 75 % 0.0 in /  0 mm
02:28 7.9 °F /  -13.4 °C 4.0 °F /  -15.6 °C 1007.0 in /  34097 hPa West 9.3 mph /  15 km/h 22.4 mph /  36 km/h 75 % 0.0 in /  0 mm
02:33 7.9 °F /  -13.4 °C 4.0 °F /  -15.6 °C 1007.0 in /  34097 hPa West 11.9 mph /  19.2 km/h 22.7 mph /  36.5 km/h 75 % 0.0 in /  0 mm
02:36 7.9 °F /  -13.4 °C 4.0 °F /  -15.6 °C 1007.0 in /  34097 hPa West 16.6 mph /  26.7 km/h 22.7 mph /  36.5 km/h 75 % 0.0 in /  0 mm
02:37 7.8 °F /  -13.4 °C 4.0 °F /  -15.6 °C 1007.0 in /  34097 hPa WSW 6.1 mph /  9.8 km/h 22.7 mph /  36.5 km/h 75 % 0.0 in /  0 mm
02:41 7.8 °F /  -13.4 °C 4.0 °F /  -15.6 °C 1008.0 in /  34130.9 hPa WSW 13.7 mph /  22 km/h 23.8 mph /  38.3 km/h 76 % 0.0 in /  0 mm
02:46 7.7 °F /  -13.5 °C 4.0 °F /  -15.6 °C 1008.0 in /  34130.9 hPa West 9.3 mph /  15 km/h 23.8 mph /  38.3 km/h 76 % 0.0 in /  0 mm
02:51 7.7 °F /  -13.5 °C 4.0 °F /  -15.6 °C 1008.0 in /  34130.9 hPa West 14.0 mph /  22.5 km/h 26.2 mph /  42.2 km/h 76 % 0.0 in /  0 mm
02:56 7.7 °F /  -13.5 °C 4.0 °F /  -15.6 °C 1010.0 in /  34198.6 hPa West 10.5 mph /  16.9 km/h 26.2 mph /  42.2 km/h 77 % 0.0 in /  0 mm
02:58 7.7 °F /  -13.5 °C 4.0 °F /  -15.6 °C 1010.0 in /  34198.6 hPa West 11.9 mph /  19.2 km/h 26.2 mph /  42.2 km/h 77 % 0.0 in /  0 mm
03:03 7.7 °F /  -13.5 °C 4.0 °F /  -15.6 °C 1010.0 in /  34198.6 hPa West 14.3 mph /  23 km/h 19.8 mph /  31.9 km/h 77 % 0.0 in /  0 mm
03:04 7.7 °F /  -13.5 °C 4.0 °F /  -15.6 °C 1010.0 in /  34198.6 hPa South 7.9 mph /  12.7 km/h 19.8 mph /  31.9 km/h 77 % 0.0 in /  0 mm
03:09 7.7 °F /  -13.5 °C 4.0 °F /  -15.6 °C 1010.0 in /  34198.6 hPa West 12.2 mph /  19.6 km/h 19.8 mph /  31.9 km/h 77 % 0.0 in /  0 mm
03:10 7.7 °F /  -13.5 °C 4.0 °F /  -15.6 °C 1010.0 in /  34198.6 hPa SSW 6.4 mph /  10.3 km/h 19.8 mph /  31.9 km/h 77 % 0.0 in /  0 mm
03:15 7.6 °F /  -13.6 °C 4.0 °F /  -15.6 °C 1009.0 in /  34164.7 hPa WNW 9.3 mph /  15 km/h 18.0 mph /  29 km/h 78 % 0.0 in /  0 mm
03:20 7.6 °F /  -13.6 °C 4.0 °F /  -15.6 °C 1009.0 in /  34164.7 hPa West 12.2 mph /  19.6 km/h 19.5 mph /  31.4 km/h 78 % 0.0 in /  0 mm
03:23 7.6 °F /  -13.6 °C 4.0 °F /  -15.6 °C 1009.0 in /  34164.7 hPa WSW 10.5 mph /  16.9 km/h 19.8 mph /  31.9 km/h 78 % 0.0 in /  0 mm
03:28 7.5 °F /  -13.6 °C 4.0 °F /  -15.6 °C 1009.0 in /  34164.7 hPa West 9.3 mph /  15 km/h 20.1 mph /  32.3 km/h 78 % 0.0 in /  0 mm
03:31 7.5 °F /  -13.6 °C 4.0 °F /  -15.6 °C 1009.0 in /  34164.7 hPa WSW 4.3 mph /  6.9 km/h 20.1 mph /  32.3 km/h 78 % 0.0 in /  0 mm
03:36 7.4 °F /  -13.7 °C 4.0 °F /  -15.6 °C 1009.0 in /  34164.7 hPa West 10.5 mph /  16.9 km/h 17.2 mph /  27.7 km/h 78 % 0.0 in /  0 mm
03:37 7.3 °F /  -13.7 °C 4.0 °F /  -15.6 °C 1009.0 in /  34164.7 hPa West 9.3 mph /  15 km/h 19.5 mph /  31.4 km/h 78 % 0.0 in /  0 mm
03:43 7.2 °F /  -13.8 °C 4.0 °F /  -15.6 °C 1009.0 in /  34164.7 hPa West 12.6 mph /  20.3 km/h 23.8 mph /  38.3 km/h 79 % 0.0 in /  0 mm
03:44 7.2 °F /  -13.8 °C 4.0 °F /  -15.6 °C 1009.0 in /  34164.7 hPa WNW 10.5 mph /  16.9 km/h 23.8 mph /  38.3 km/h 79 % 0.0 in /  0 mm
03:50 7.1 °F /  -13.8 °C 4.0 °F /  -15.6 °C 1009.0 in /  34164.7 hPa West 10.5 mph /  16.9 km/h 19.8 mph /  31.9 km/h 79 % 0.0 in /  0 mm
03:55 6.9 °F /  -13.9 °C 4.0 °F /  -15.6 °C 1009.0 in /  34164.7 hPa West 9.7 mph /  15.6 km/h 19.8 mph /  31.9 km/h 80 % 0.0 in /  0 mm
04:00 6.8 °F /  -14 °C 4.0 °F /  -15.6 °C 1009.0 in /  34164.7 hPa WSW 9.0 mph /  14.5 km/h 17.2 mph /  27.7 km/h 80 % 0.0 in /  0 mm
04:02 6.7 °F /  -14.1 °C 4.0 °F /  -15.6 °C 1009.0 in /  34164.7 hPa WSW 9.0 mph /  14.5 km/h 14.8 mph /  23.8 km/h 80 % 0.0 in /  0 mm
04:07 6.7 °F /  -14.1 °C 4.0 °F /  -15.6 °C 1009.0 in /  34164.7 hPa West 6.1 mph /  9.8 km/h 16.9 mph /  27.2 km/h 80 % 0.0 in /  0 mm
04:15 6.4 °F /  -14.2 °C 3.0 °F /  -16.1 °C 1009.0 in /  34164.7 hPa West 12.2 mph /  19.6 km/h 15.8 mph /  25.4 km/h 81 % 0.0 in /  0 mm
04:20 6.2 °F /  -14.3 °C 4.0 °F /  -15.6 °C 1009.0 in /  34164.7 hPa WSW 10.8 mph /  17.4 km/h 14.0 mph /  22.5 km/h 82 % 0.0 in /  0 mm
04:22 6.2 °F /  -14.3 °C 4.0 °F /  -15.6 °C 1009.0 in /  34164.7 hPa WSW 10.5 mph /  16.9 km/h 14.0 mph /  22.5 km/h 82 % 0.0 in /  0 mm
04:27 6.1 °F /  -14.4 °C 3.0 °F /  -16.1 °C 1009.0 in /  34164.7 hPa WSW 10.5 mph /  16.9 km/h 15.4 mph /  24.8 km/h 83 % 0.0 in /  0 mm
04:34 6.0 °F /  -14.4 °C 4.0 °F /  -15.6 °C 1009.0 in /  34164.7 hPa WSW 11.9 mph /  19.2 km/h 14.0 mph /  22.5 km/h 84 % 0.0 in /  0 mm
04:39 5.9 °F /  -14.5 °C 4.0 °F /  -15.6 °C 1009.0 in /  34164.7 hPa WSW 9.7 mph /  15.6 km/h 14.0 mph /  22.5 km/h 84 % 0.0 in /  0 mm
04:44 5.8 °F /  -14.6 °C 4.0 °F /  -15.6 °C 1010.0 in /  34198.6 hPa WSW 8.7 mph /  14 km/h 13.0 mph /  20.9 km/h 85 % 0.0 in /  0 mm
04:49 5.7 °F /  -14.6 °C 4.0 °F /  -15.6 °C 1010.0 in /  34198.6 hPa WSW 6.4 mph /  10.3 km/h 13.0 mph /  20.9 km/h 85 % 0.0 in /  0 mm
04:51 5.7 °F /  -14.6 °C 4.0 °F /  -15.6 °C 1010.0 in /  34198.6 hPa WSW 6.9 mph /  11.1 km/h 13.0 mph /  20.9 km/h 85 % 0.0 in /  0 mm
04:55 5.6 °F /  -14.7 °C 4.0 °F /  -15.6 °C 1010.0 in /  34198.6 hPa West 12.6 mph /  20.3 km/h 13.0 mph /  20.9 km/h 85 % 0.0 in /  0 mm
05:00 5.5 °F /  -14.7 °C 4.0 °F /  -15.6 °C 1010.0 in /  34198.6 hPa WSW 1.4 mph /  2.3 km/h 12.6 mph /  20.3 km/h 86 % 0.0 in /  0 mm
05:01 5.5 °F /  -14.7 °C 4.0 °F /  -15.6 °C 1010.0 in /  34198.6 hPa WSW 7.9 mph /  12.7 km/h 12.6 mph /  20.3 km/h 86 % 0.0 in /  0 mm
05:06 5.4 °F /  -14.8 °C 3.0 °F /  -16.1 °C 1010.0 in /  34198.6 hPa WSW 7.9 mph /  12.7 km/h 12.2 mph /  19.6 km/h 86 % 0.0 in /  0 mm
05:07 5.3 °F /  -14.8 °C 3.0 °F /  -16.1 °C 1010.0 in /  34198.6 hPa West 10.5 mph /  16.9 km/h 12.2 mph /  19.6 km/h 86 % 0.0 in /  0 mm
05:12 5.3 °F /  -14.8 °C 3.0 °F /  -16.1 °C 1010.0 in /  34198.6 hPa West 10.5 mph /  16.9 km/h 10.5 mph /  16.9 km/h 86 % 0.0 in /  0 mm
05:13 5.3 °F /  -14.8 °C 3.0 °F /  -16.1 °C 1010.0 in /  34198.6 hPa West 5.8 mph /  9.3 km/h 10.5 mph /  16.9 km/h 86 % 0.0 in /  0 mm
05:18 5.3 °F /  -14.8 °C 4.0 °F /  -15.6 °C 1010.0 in /  34198.6 hPa West 9.3 mph /  15 km/h 12.2 mph /  19.6 km/h 87 % 0.0 in /  0 mm
05:19 5.3 °F /  -14.8 °C 4.0 °F /  -15.6 °C 1010.0 in /  34198.6 hPa WSW 4.3 mph /  6.9 km/h 12.2 mph /  19.6 km/h 87 % 0.0 in /  0 mm
05:21 5.3 °F /  -14.8 °C 4.0 °F /  -15.6 °C 1010.0 in /  34198.6 hPa West 9.7 mph /  15.6 km/h 16.6 mph /  26.7 km/h 87 % 0.0 in /  0 mm
05:26 5.4 °F /  -14.8 °C 4.0 °F /  -15.6 °C 1011.1 in /  34235.8 hPa West 5.0 mph /  8 km/h 16.6 mph /  26.7 km/h 88 % 0.0 in /  0 mm
05:28 5.4 °F /  -14.8 °C 4.0 °F /  -15.6 °C 1011.1 in /  34235.8 hPa West 10.5 mph /  16.9 km/h 16.6 mph /  26.7 km/h 88 % 0.0 in /  0 mm
05:33 5.3 °F /  -14.8 °C 4.0 °F /  -15.6 °C 1011.1 in /  34235.8 hPa West 11.1 mph /  17.9 km/h 14.0 mph /  22.5 km/h 88 % 0.0 in /  0 mm
05:38 5.2 °F /  -14.9 °C 3.0 °F /  -16.1 °C 1011.1 in /  34235.8 hPa SSW 10.5 mph /  16.9 km/h 14.0 mph /  22.5 km/h 88 % 0.0 in /  0 mm
05:42 5.1 °F /  -14.9 °C 3.0 °F /  -16.1 °C 1011.1 in /  34235.8 hPa WSW 12.2 mph /  19.6 km/h 14.0 mph /  22.5 km/h 88 % 0.0 in /  0 mm
05:44 5.1 °F /  -14.9 °C 3.0 °F /  -16.1 °C 1011.1 in /  34235.8 hPa WSW 10.1 mph /  16.3 km/h 14.0 mph /  22.5 km/h 88 % 0.0 in /  0 mm
05:47 5.1 °F /  -14.9 °C 3.0 °F /  -16.1 °C 1011.1 in /  34235.8 hPa West 9.0 mph /  14.5 km/h 14.0 mph /  22.5 km/h 88 % 0.0 in /  0 mm
05:51 5.1 °F /  -14.9 °C 3.0 °F /  -16.1 °C 1011.1 in /  34235.8 hPa WSW 9.0 mph /  14.5 km/h 14.0 mph /  22.5 km/h 88 % 0.0 in /  0 mm
05:56 5.0 °F /  -15 °C 3.0 °F /  -16.1 °C 1011.1 in /  34235.8 hPa Calm   14.3 mph /  23 km/h 88 % 0.0 in /  0 mm
06:01 5.0 °F /  -15 °C 3.0 °F /  -16.1 °C 1011.1 in /  34235.8 hPa West 7.6 mph /  12.2 km/h 14.3 mph /  23 km/h 88 % 0.0 in /  0 mm
06:02 4.9 °F /  -15.1 °C 3.0 °F /  -16.1 °C 1011.1 in /  34235.8 hPa West 9.0 mph /  14.5 km/h 14.3 mph /  23 km/h 89 % 0.0 in /  0 mm
06:04 4.9 °F /  -15.1 °C 3.0 °F /  -16.1 °C 1011.1 in /  34235.8 hPa West 8.7 mph /  14 km/h 14.3 mph /  23 km/h 89 % 0.0 in /  0 mm
06:08 4.8 °F /  -15.1 °C 3.0 °F /  -16.1 °C 1011.1 in /  34235.8 hPa West 12.2 mph /  19.6 km/h 13.7 mph /  22 km/h 89 % 0.0 in /  0 mm
06:12 4.8 °F /  -15.1 °C 3.0 °F /  -16.1 °C 1011.1 in /  34235.8 hPa West 9.3 mph /  15 km/h 14.0 mph /  22.5 km/h 90 % 0.0 in /  0 mm
06:13 4.8 °F /  -15.1 °C 3.0 °F /  -16.1 °C 1011.1 in /  34235.8 hPa WSW 7.6 mph /  12.2 km/h 14.0 mph /  22.5 km/h 90 % 0.0 in /  0 mm
06:18 4.7 °F /  -15.2 °C 3.0 °F /  -16.1 °C 1011.1 in /  34235.8 hPa West 6.1 mph /  9.8 km/h 12.6 mph /  20.3 km/h 90 % 0.0 in /  0 mm
06:23 4.6 °F /  -15.2 °C 3.0 °F /  -16.1 °C 1011.1 in /  34235.8 hPa WSW 2.6 mph /  4.2 km/h 12.2 mph /  19.6 km/h 90 % 0.0 in /  0 mm
06:28 4.5 °F /  -15.3 °C 3.0 °F /  -16.1 °C 1010.0 in /  34198.6 hPa WSW 5.0 mph /  8 km/h 10.5 mph /  16.9 km/h 90 % 0.0 in /  0 mm
06:33 4.4 °F /  -15.3 °C 3.0 °F /  -16.1 °C 1010.0 in /  34198.6 hPa West 2.1 mph /  3.4 km/h 10.5 mph /  16.9 km/h 90 % 0.0 in /  0 mm
06:34 4.4 °F /  -15.3 °C 3.0 °F /  -16.1 °C 1010.0 in /  34198.6 hPa West 4.7 mph /  7.6 km/h 9.7 mph /  15.6 km/h 90 % 0.0 in /  0 mm
06:40 4.3 °F /  -15.4 °C 3.0 °F /  -16.1 °C 1010.0 in /  34198.6 hPa WSW 7.9 mph /  12.7 km/h 9.7 mph /  15.6 km/h 90 % 0.0 in /  0 mm
06:41 4.3 °F /  -15.4 °C 3.0 °F /  -16.1 °C 1010.0 in /  34198.6 hPa West 5.0 mph /  8 km/h 10.1 mph /  16.3 km/h 90 % 0.0 in /  0 mm
06:46 4.3 °F /  -15.4 °C 3.0 °F /  -16.1 °C 1010.0 in /  34198.6 hPa West 10.1 mph /  16.3 km/h 12.2 mph /  19.6 km/h 91 % 0.0 in /  0 mm
06:48 4.3 °F /  -15.4 °C 3.0 °F /  -16.1 °C 1010.0 in /  34198.6 hPa West 10.1 mph /  16.3 km/h 12.2 mph /  19.6 km/h 91 % 0.0 in /  0 mm
06:53 4.3 °F /  -15.4 °C 3.0 °F /  -16.1 °C 1010.0 in /  34198.6 hPa West 7.9 mph /  12.7 km/h 12.2 mph /  19.6 km/h 92 % 0.0 in /  0 mm
06:58 4.2 °F /  -15.4 °C 3.0 °F /  -16.1 °C 1010.0 in /  34198.6 hPa West 9.3 mph /  15 km/h 12.2 mph /  19.6 km/h 92 % 0.0 in /  0 mm
06:59 4.2 °F /  -15.4 °C 3.0 °F /  -16.1 °C 1010.0 in /  34198.6 hPa West 9.3 mph /  15 km/h 12.2 mph /  19.6 km/h 92 % 0.0 in /  0 mm
07:04 4.1 °F /  -15.5 °C 3.0 °F /  -16.1 °C 1010.0 in /  34198.6 hPa WSW 4.3 mph /  6.9 km/h 10.5 mph /  16.9 km/h 93 % 0.0 in /  0 mm
07:05 4.1 °F /  -15.5 °C 3.0 °F /  -16.1 °C 1010.0 in /  34198.6 hPa Calm   9.7 mph /  15.6 km/h 93 % 0.0 in /  0 mm
07:10 4.0 °F /  -15.6 °C 3.0 °F /  -16.1 °C 1011.1 in /  34235.8 hPa West 5.8 mph /  9.3 km/h 9.7 mph /  15.6 km/h 93 % 0.0 in /  0 mm
07:11 4.0 °F /  -15.6 °C 3.0 °F /  -16.1 °C 1011.1 in /  34235.8 hPa West 6.9 mph /  11.1 km/h 9.7 mph /  15.6 km/h 93 % 0.0 in /  0 mm
07:16 4.0 °F /  -15.6 °C 3.0 °F /  -16.1 °C 1011.1 in /  34235.8 hPa West 5.0 mph /  8 km/h 7.9 mph /  12.7 km/h 93 % 0.0 in /  0 mm
07:18 4.0 °F /  -15.6 °C 3.0 °F /  -16.1 °C 1011.1 in /  34235.8 hPa Calm   7.9 mph /  12.7 km/h 93 % 0.0 in /  0 mm
07:23 3.8 °F /  -15.7 °C 3.0 °F /  -16.1 °C 1011.1 in /  34235.8 hPa West 6.4 mph /  10.3 km/h 8.7 mph /  14 km/h 93 % 0.0 in /  0 mm
07:26 3.8 °F /  -15.7 °C 3.0 °F /  -16.1 °C 1010.0 in /  34198.6 hPa West 5.5 mph /  8.9 km/h 8.7 mph /  14 km/h 93 % 0.0 in /  0 mm
07:31 3.7 °F /  -15.7 °C 3.0 °F /  -16.1 °C 1010.0 in /  34198.6 hPa NW 1.8 mph /  2.9 km/h 7.6 mph /  12.2 km/h 93 % 0.0 in /  0 mm
07:35 3.6 °F /  -15.8 °C 3.0 °F /  -16.1 °C 1010.0 in /  34198.6 hPa NW 4.3 mph /  6.9 km/h 6.1 mph /  9.8 km/h 93 % 0.0 in /  0 mm
07:40 3.5 °F /  -15.8 °C 3.0 °F /  -16.1 °C 1010.0 in /  34198.6 hPa Calm   5.0 mph /  8 km/h 93 % 0.0 in /  0 mm
07:41 3.4 °F /  -15.9 °C 3.0 °F /  -16.1 °C 1011.1 in /  34235.8 hPa Calm   5.0 mph /  8 km/h 93 % 0.0 in /  0 mm
07:46 3.4 °F /  -15.9 °C 3.0 °F /  -16.1 °C 1011.1 in /  34235.8 hPa Calm     94 % 0.0 in /  0 mm
07:47 3.4 °F /  -15.9 °C 3.0 °F /  -16.1 °C 1011.1 in /  34235.8 hPa Calm     94 % 0.0 in /  0 mm
07:53 3.4 °F /  -15.9 °C 3.0 °F /  -16.1 °C 1011.1 in /  34235.8 hPa WSW 5.8 mph /  9.3 km/h 5.8 mph /  9.3 km/h 94 % 0.0 in /  0 mm
07:56 3.4 °F /  -15.9 °C 3.0 °F /  -16.1 °C 1012.1 in /  34269.7 hPa West 5.5 mph /  8.9 km/h 6.9 mph /  11.1 km/h 94 % 0.0 in /  0 mm
08:01 3.4 °F /  -15.9 °C 3.0 °F /  -16.1 °C 1012.1 in /  34269.7 hPa Calm   7.6 mph /  12.2 km/h 95 % 0.0 in /  0 mm
08:03 3.3 °F /  -15.9 °C 3.0 °F /  -16.1 °C 1012.1 in /  34269.7 hPa West 5.0 mph /  8 km/h 7.6 mph /  12.2 km/h 95 % 0.0 in /  0 mm
08:05 3.3 °F /  -15.9 °C 3.0 °F /  -16.1 °C 1012.1 in /  34269.7 hPa Calm   7.6 mph /  12.2 km/h 95 % 0.0 in /  0 mm
08:09 3.3 °F /  -15.9 °C 3.0 °F /  -16.1 °C 1012.1 in /  34269.7 hPa WSW 5.5 mph /  8.9 km/h 5.8 mph /  9.3 km/h 95 % 0.0 in /  0 mm
08:14 3.3 °F /  -15.9 °C 3.0 °F /  -16.1 °C 1013.1 in /  34303.6 hPa WSW 4.3 mph /  6.9 km/h 6.9 mph /  11.1 km/h 95 % 0.0 in /  0 mm
08:15 3.3 °F /  -15.9 °C 3.0 °F /  -16.1 °C 1013.1 in /  34303.6 hPa Calm   6.9 mph /  11.1 km/h 95 % 0.0 in /  0 mm
08:20 3.3 °F /  -15.9 °C 3.0 °F /  -16.1 °C 1013.1 in /  34303.6 hPa Calm   6.9 mph /  11.1 km/h 95 % 0.0 in /  0 mm
08:25 3.3 °F /  -15.9 °C 3.0 °F /  -16.1 °C 1013.1 in /  34303.6 hPa West 6.1 mph /  9.8 km/h 6.1 mph /  9.8 km/h 95 % 0.0 in /  0 mm
08:27 3.3 °F /  -15.9 °C 3.0 °F /  -16.1 °C 1013.1 in /  34303.6 hPa West 6.9 mph /  11.1 km/h 6.9 mph /  11.1 km/h 95 % 0.0 in /  0 mm
08:32 3.4 °F /  -15.9 °C 3.0 °F /  -16.1 °C 1013.1 in /  34303.6 hPa Calm   6.9 mph /  11.1 km/h 96 % 0.0 in /  0 mm
08:33 3.4 °F /  -15.9 °C 3.0 °F /  -16.1 °C 1013.1 in /  34303.6 hPa Calm   6.9 mph /  11.1 km/h 96 % 0.0 in /  0 mm
08:38 3.3 °F /  -15.9 °C 3.0 °F /  -16.1 °C 1013.1 in /  34303.6 hPa Calm   6.9 mph /  11.1 km/h 96 % 0.0 in /  0 mm
08:43 3.1 °F /  -16.1 °C 3.0 °F /  -16.1 °C 1013.1 in /  34303.6 hPa Calm   6.9 mph /  11.1 km/h 95 % 0.0 in /  0 mm
08:44 3.1 °F /  -16.1 °C 3.0 °F /  -16.1 °C 1013.1 in /  34303.6 hPa Calm   6.9 mph /  11.1 km/h 95 % 0.0 in /  0 mm
08:50 2.8 °F /  -16.2 °C 3.0 °F /  -16.1 °C 1013.1 in /  34303.6 hPa Calm     95 % 0.0 in /  0 mm
08:55 2.6 °F /  -16.3 °C 2.0 °F /  -16.7 °C 1013.1 in /  34303.6 hPa Calm   1.4 mph /  2.3 km/h 94 % 0.0 in /  0 mm
08:58 2.5 °F /  -16.4 °C 2.0 °F /  -16.7 °C 1013.1 in /  34303.6 hPa Calm   1.4 mph /  2.3 km/h 94 % 0.0 in /  0 mm
09:00 2.4 °F /  -16.4 °C 2.0 °F /  -16.7 °C 1013.1 in /  34303.6 hPa Calm   1.4 mph /  2.3 km/h 94 % 0.0 in /  0 mm
09:09 2.2 °F /  -16.6 °C 1.0 °F /  -17.2 °C 1013.1 in /  34303.6 hPa Calm     94 % 0.0 in /  0 mm
09:12 2.2 °F /  -16.6 °C 2.0 °F /  -16.7 °C 1013.1 in /  34303.6 hPa Calm     95 % 0.0 in /  0 mm
09:17 2.3 °F /  -16.5 °C 2.0 °F /  -16.7 °C 1013.1 in /  34303.6 hPa Calm     95 % 0.0 in /  0 mm
09:19 2.3 °F /  -16.5 °C 2.0 °F /  -16.7 °C 1013.1 in /  34303.6 hPa Calm     95 % 0.0 in /  0 mm
09:24 2.5 °F /  -16.4 °C 3.0 °F /  -16.1 °C 1013.1 in /  34303.6 hPa Calm   4.3 mph /  6.9 km/h 96 % 0.0 in /  0 mm
09:29 2.7 °F /  -16.3 °C 3.0 °F /  -16.1 °C 1013.1 in /  34303.6 hPa Calm   4.3 mph /  6.9 km/h 97 % 0.0 in /  0 mm
09:32 2.8 °F /  -16.2 °C 3.0 °F /  -16.1 °C 1013.1 in /  34303.6 hPa Calm     97 % 0.0 in /  0 mm
09:37 2.7 °F /  -16.3 °C 3.0 °F /  -16.1 °C 1013.1 in /  34303.6 hPa Calm     97 % 0.0 in /  0 mm
09:38 2.8 °F /  -16.2 °C 3.0 °F /  -16.1 °C 1013.1 in /  34303.6 hPa Calm     97 % 0.0 in /  0 mm
09:43 2.9 °F /  -16.2 °C 3.0 °F /  -16.1 °C 1013.1 in /  34303.6 hPa Calm     97 % 0.0 in /  0 mm
09:49 3.0 °F /  -16.1 °C 3.0 °F /  -16.1 °C 1013.1 in /  34303.6 hPa Calm     97 % 0.0 in /  0 mm
09:54 3.3 °F /  -15.9 °C 3.0 °F /  -16.1 °C 1013.1 in /  34303.6 hPa WSW 4.0 mph /  6.4 km/h 4.0 mph /  6.4 km/h 98 % 0.0 in /  0 mm
09:59 3.5 °F /  -15.8 °C 4.0 °F /  -15.6 °C 1013.1 in /  34303.6 hPa Calm   4.3 mph /  6.9 km/h 98 % 0.0 in /  0 mm
10:01 3.6 °F /  -15.8 °C 4.0 °F /  -15.6 °C 1013.1 in /  34303.6 hPa WSW 1.8 mph /  2.9 km/h 4.3 mph /  6.9 km/h 98 % 0.0 in /  0 mm
10:06 3.8 °F /  -15.7 °C 4.0 °F /  -15.6 °C 1013.1 in /  34303.6 hPa Calm   4.7 mph /  7.6 km/h 98 % 0.0 in /  0 mm
10:11 4.0 °F /  -15.6 °C 4.0 °F /  -15.6 °C 1013.1 in /  34303.6 hPa WSW 3.5 mph /  5.6 km/h 9.0 mph /  14.5 km/h 98 % 0.0 in /  0 mm
10:13 4.1 °F /  -15.5 °C 4.0 °F /  -15.6 °C 1013.1 in /  34303.6 hPa SSW 2.6 mph /  4.2 km/h 9.0 mph /  14.5 km/h 98 % 0.0 in /  0 mm
10:18 4.4 °F /  -15.3 °C 4.0 °F /  -15.6 °C 1013.1 in /  34303.6 hPa Calm   9.0 mph /  14.5 km/h 98 % 0.0 in /  0 mm
10:21 4.5 °F /  -15.3 °C 5.0 °F /  -15 °C 1013.1 in /  34303.6 hPa Calm   6.1 mph /  9.8 km/h 98 % 0.0 in /  0 mm
10:25 4.6 °F /  -15.2 °C 5.0 °F /  -15 °C 1013.1 in /  34303.6 hPa Calm     98 % 0.0 in /  0 mm
10:30 4.8 °F /  -15.1 °C 5.0 °F /  -15 °C 1013.1 in /  34303.6 hPa Calm     98 % 0.0 in /  0 mm
10:32 4.8 °F /  -15.1 °C 5.0 °F /  -15 °C 1013.1 in /  34303.6 hPa Calm     98 % 0.0 in /  0 mm
10:37 4.9 °F /  -15.1 °C 5.0 °F /  -15 °C 1013.1 in /  34303.6 hPa Calm   1.4 mph /  2.3 km/h 98 % 0.0 in /  0 mm
10:38 4.9 °F /  -15.1 °C 5.0 °F /  -15 °C 1013.1 in /  34303.6 hPa Calm   1.4 mph /  2.3 km/h 98 % 0.0 in /  0 mm
10:41 5.0 °F /  -15 °C 5.0 °F /  -15 °C 1013.1 in /  34303.6 hPa Calm   1.4 mph /  2.3 km/h 97 % 0.0 in /  0 mm
10:44 5.0 °F /  -15 °C 5.0 °F /  -15 °C 1013.1 in /  34303.6 hPa Calm   2.1 mph /  3.4 km/h 97 % 0.0 in /  0 mm
10:47 5.0 °F /  -15 °C 5.0 °F /  -15 °C 1013.1 in /  34303.6 hPa South 2.1 mph /  3.4 km/h 5.8 mph /  9.3 km/h 97 % 0.0 in /  0 mm
10:52 5.1 °F /  -14.9 °C 5.0 °F /  -15 °C 1013.1 in /  34303.6 hPa Calm   5.8 mph /  9.3 km/h 97 % 0.0 in /  0 mm
10:56 5.2 °F /  -14.9 °C 5.0 °F /  -15 °C 1013.1 in /  34303.6 hPa Calm   5.8 mph /  9.3 km/h 97 % 0.0 in /  0 mm
10:58 5.2 °F /  -14.9 °C 5.0 °F /  -15 °C 1013.1 in /  34303.6 hPa Calm     97 % 0.0 in /  0 mm
11:03 5.3 °F /  -14.8 °C 5.0 °F /  -15 °C 1013.1 in /  34303.6 hPa SW 5.5 mph /  8.9 km/h 7.9 mph /  12.7 km/h 97 % 0.0 in /  0 mm
11:04 5.3 °F /  -14.8 °C 5.0 °F /  -15 °C 1013.1 in /  34303.6 hPa SW 6.4 mph /  10.3 km/h 7.9 mph /  12.7 km/h 97 % 0.0 in /  0 mm
11:08 5.4 °F /  -14.8 °C 5.0 °F /  -15 °C 1013.1 in /  34303.6 hPa SSW 6.4 mph /  10.3 km/h 9.0 mph /  14.5 km/h 97 % 0.0 in /  0 mm
11:09 5.4 °F /  -14.8 °C 5.0 °F /  -15 °C 1013.1 in /  34303.6 hPa SW 6.4 mph /  10.3 km/h 9.0 mph /  14.5 km/h 97 % 0.0 in /  0 mm
11:14 5.6 °F /  -14.7 °C 6.0 °F /  -14.4 °C 1013.1 in /  34303.6 hPa SSW 3.5 mph /  5.6 km/h 9.0 mph /  14.5 km/h 96 % 0.0 in /  0 mm
11:19 5.7 °F /  -14.6 °C 6.0 °F /  -14.4 °C 1013.1 in /  34303.6 hPa WSW 6.4 mph /  10.3 km/h 9.7 mph /  15.6 km/h 96 % 0.0 in /  0 mm
11:22 5.7 °F /  -14.6 °C 6.0 °F /  -14.4 °C 1013.1 in /  34303.6 hPa Calm   9.7 mph /  15.6 km/h 96 % 0.0 in /  0 mm
11:31 5.8 °F /  -14.6 °C 6.0 °F /  -14.4 °C 1013.1 in /  34303.6 hPa SSW 5.5 mph /  8.9 km/h 9.0 mph /  14.5 km/h 95 % 0.0 in /  0 mm
11:36 5.9 °F /  -14.5 °C 5.0 °F /  -15 °C 1013.1 in /  34303.6 hPa WSW 11.9 mph /  19.2 km/h 11.9 mph /  19.2 km/h 94 % 0.0 in /  0 mm
11:38 6.0 °F /  -14.4 °C 5.0 °F /  -15 °C 1013.1 in /  34303.6 hPa SSW 9.0 mph /  14.5 km/h 11.9 mph /  19.2 km/h 93 % 0.0 in /  0 mm
11:39 6.0 °F /  -14.4 °C 5.0 °F /  -15 °C 1013.1 in /  34303.6 hPa SSW 9.3 mph /  15 km/h 11.9 mph /  19.2 km/h 93 % 0.0 in /  0 mm
11:44 6.0 °F /  -14.4 °C 5.0 °F /  -15 °C 1013.1 in /  34303.6 hPa SW 9.7 mph /  15.6 km/h 11.9 mph /  19.2 km/h 92 % 0.0 in /  0 mm
11:49 6.1 °F /  -14.4 °C 5.0 °F /  -15 °C 1013.1 in /  34303.6 hPa SW 6.1 mph /  9.8 km/h 13.7 mph /  22 km/h 92 % 0.0 in /  0 mm
11:53 6.1 °F /  -14.4 °C 5.0 °F /  -15 °C 1013.1 in /  34303.6 hPa SSW 9.3 mph /  15 km/h 13.7 mph /  22 km/h 91 % 0.0 in /  0 mm
11:58 6.2 °F /  -14.3 °C 5.0 °F /  -15 °C 1013.1 in /  34303.6 hPa SSW 11.9 mph /  19.2 km/h 12.6 mph /  20.3 km/h 91 % 0.0 in /  0 mm
12:00 6.3 °F /  -14.3 °C 5.0 °F /  -15 °C 1013.1 in /  34303.6 hPa SSW 9.3 mph /  15 km/h 12.6 mph /  20.3 km/h 91 % 0.0 in /  0 mm
12:05 6.4 °F /  -14.2 °C 5.0 °F /  -15 °C 1013.1 in /  34303.6 hPa Calm   12.2 mph /  19.6 km/h 91 % 0.0 in /  0 mm
12:06 6.4 °F /  -14.2 °C 5.0 °F /  -15 °C 1013.1 in /  34303.6 hPa SSW 10.1 mph /  16.3 km/h 12.2 mph /  19.6 km/h 91 % 0.0 in /  0 mm
12:11 6.4 °F /  -14.2 °C 5.0 °F /  -15 °C 1012.1 in /  34269.7 hPa WSW 6.4 mph /  10.3 km/h 10.1 mph /  16.3 km/h 91 % 0.0 in /  0 mm
12:12 6.4 °F /  -14.2 °C 5.0 °F /  -15 °C 1012.1 in /  34269.7 hPa SSW 9.0 mph /  14.5 km/h 10.1 mph /  16.3 km/h 91 % 0.0 in /  0 mm
12:17 6.5 °F /  -14.2 °C 6.0 °F /  -14.4 °C 1012.1 in /  34269.7 hPa Calm   10.8 mph /  17.4 km/h 91 % 0.0 in /  0 mm
12:18 6.5 °F /  -14.2 °C 6.0 °F /  -14.4 °C 1012.1 in /  34269.7 hPa Calm   10.8 mph /  17.4 km/h 91 % 0.0 in /  0 mm
12:23 6.5 °F /  -14.2 °C 5.0 °F /  -15 °C 1012.1 in /  34269.7 hPa SSW 8.7 mph /  14 km/h 11.9 mph /  19.2 km/h 90 % 0.0 in /  0 mm
12:26 6.6 °F /  -14.1 °C 5.0 °F /  -15 °C 1012.1 in /  34269.7 hPa SSW 5.8 mph /  9.3 km/h 11.9 mph /  19.2 km/h 90 % 0.0 in /  0 mm
12:31 6.6 °F /  -14.1 °C 5.0 °F /  -15 °C 1012.1 in /  34269.7 hPa SSW 2.6 mph /  4.2 km/h 10.5 mph /  16.9 km/h 90 % 0.0 in /  0 mm
12:33 6.6 °F /  -14.1 °C 5.0 °F /  -15 °C 1012.1 in /  34269.7 hPa South 5.8 mph /  9.3 km/h 10.5 mph /  16.9 km/h 90 % 0.0 in /  0 mm
12:35 6.6 °F /  -14.1 °C 5.0 °F /  -15 °C 1012.1 in /  34269.7 hPa SW 7.9 mph /  12.7 km/h 13.7 mph /  22 km/h 90 % 0.0 in /  0 mm
12:39 6.7 °F /  -14.1 °C 5.0 °F /  -15 °C 1012.1 in /  34269.7 hPa South 9.0 mph /  14.5 km/h 13.7 mph /  22 km/h 90 % 0.0 in /  0 mm
12:44 6.6 °F /  -14.1 °C 5.0 °F /  -15 °C 1011.1 in /  34235.8 hPa South 5.8 mph /  9.3 km/h 13.7 mph /  22 km/h 90 % 0.0 in /  0 mm
12:45 6.6 °F /  -14.1 °C 5.0 °F /  -15 °C 1011.1 in /  34235.8 hPa SSW 6.9 mph /  11.1 km/h 11.9 mph /  19.2 km/h 90 % 0.0 in /  0 mm
12:50 6.6 °F /  -14.1 °C 5.0 °F /  -15 °C 1011.1 in /  34235.8 hPa South 10.1 mph /  16.3 km/h 11.6 mph /  18.7 km/h 90 % 0.0 in /  0 mm
12:55 6.6 °F /  -14.1 °C 6.0 °F /  -14.4 °C 1011.1 in /  34235.8 hPa SSW 6.9 mph /  11.1 km/h 13.0 mph /  20.9 km/h 91 % 0.0 in /  0 mm
12:58 6.6 °F /  -14.1 °C 6.0 °F /  -14.4 °C 1012.1 in /  34269.7 hPa South 9.7 mph /  15.6 km/h 13.0 mph /  20.9 km/h 91 % 0.0 in /  0 mm
13:00 6.7 °F /  -14.1 °C 6.0 °F /  -14.4 °C 1012.1 in /  34269.7 hPa SSW 4.7 mph /  7.6 km/h 13.0 mph /  20.9 km/h 91 % 0.0 in /  0 mm
13:05 6.7 °F /  -14.1 °C 6.0 °F /  -14.4 °C 1012.1 in /  34269.7 hPa South 11.9 mph /  19.2 km/h 13.0 mph /  20.9 km/h 91 % 0.0 in /  0 mm
13:07 6.7 °F /  -14.1 °C 6.0 °F /  -14.4 °C 1012.1 in /  34269.7 hPa SSW 6.1 mph /  9.8 km/h 13.7 mph /  22 km/h 92 % 0.0 in /  0 mm
13:12 6.7 °F /  -14.1 °C 6.0 °F /  -14.4 °C 1011.1 in /  34235.8 hPa South 8.7 mph /  14 km/h 13.7 mph /  22 km/h 92 % 0.0 in /  0 mm
13:15 6.7 °F /  -14.1 °C 6.0 °F /  -14.4 °C 1011.1 in /  34235.8 hPa SSW 9.3 mph /  15 km/h 14.0 mph /  22.5 km/h 92 % 0.0 in /  0 mm
13:19 6.8 °F /  -14 °C 6.0 °F /  -14.4 °C 1011.1 in /  34235.8 hPa SSW 7.6 mph /  12.2 km/h 14.8 mph /  23.8 km/h 93 % 0.0 in /  0 mm
13:24 6.8 °F /  -14 °C 6.0 °F /  -14.4 °C 1011.1 in /  34235.8 hPa SSW 10.1 mph /  16.3 km/h 16.6 mph /  26.7 km/h 93 % 0.0 in /  0 mm
13:25 6.8 °F /  -14 °C 6.0 °F /  -14.4 °C 1011.1 in /  34235.8 hPa South 1.8 mph /  2.9 km/h 16.6 mph /  26.7 km/h 93 % 0.0 in /  0 mm
13:30 6.8 °F /  -14 °C 6.0 °F /  -14.4 °C 1011.1 in /  34235.8 hPa SSW 9.3 mph /  15 km/h 16.6 mph /  26.7 km/h 93 % 0.0 in /  0 mm
13:33 6.8 °F /  -14 °C 6.0 °F /  -14.4 °C 1011.1 in /  34235.8 hPa South 5.0 mph /  8 km/h 12.6 mph /  20.3 km/h 93 % 0.0 in /  0 mm
13:38 6.9 °F /  -13.9 °C 6.0 °F /  -14.4 °C 1011.1 in /  34235.8 hPa South 8.7 mph /  14 km/h 12.2 mph /  19.6 km/h 94 % 0.0 in /  0 mm
13:41 7.0 °F /  -13.9 °C 6.0 °F /  -14.4 °C 1011.1 in /  34235.8 hPa Calm   13.0 mph /  20.9 km/h 93 % 0.0 in /  0 mm
13:46 7.0 °F /  -13.9 °C 6.0 °F /  -14.4 °C 1011.1 in /  34235.8 hPa SSW 9.7 mph /  15.6 km/h 13.0 mph /  20.9 km/h 94 % 0.0 in /  0 mm
13:47 7.0 °F /  -13.9 °C 6.0 °F /  -14.4 °C 1011.1 in /  34235.8 hPa South 10.1 mph /  16.3 km/h 13.0 mph /  20.9 km/h 94 % 0.0 in /  0 mm
13:52 7.0 °F /  -13.9 °C 6.0 °F /  -14.4 °C 1011.1 in /  34235.8 hPa WSW 7.9 mph /  12.7 km/h 13.7 mph /  22 km/h 94 % 0.0 in /  0 mm
13:54 7.0 °F /  -13.9 °C 6.0 °F /  -14.4 °C 1011.1 in /  34235.8 hPa SSW 12.6 mph /  20.3 km/h 13.7 mph /  22 km/h 94 % 0.0 in /  0 mm
13:59 7.1 °F /  -13.8 °C 6.0 °F /  -14.4 °C 1011.1 in /  34235.8 hPa SSW 7.9 mph /  12.7 km/h 14.0 mph /  22.5 km/h 94 % 0.0 in /  0 mm
14:03 7.1 °F /  -13.8 °C 6.0 °F /  -14.4 °C 1011.1 in /  34235.8 hPa SSW 9.7 mph /  15.6 km/h 14.0 mph /  22.5 km/h 94 % 0.0 in /  0 mm
14:05 7.1 °F /  -13.8 °C 6.0 °F /  -14.4 °C 1011.1 in /  34235.8 hPa SSW 16.3 mph /  26.2 km/h 19.5 mph /  31.4 km/h 94 % 0.0 in /  0 mm
14:10 7.1 °F /  -13.8 °C 6.0 °F /  -14.4 °C 1011.1 in /  34235.8 hPa SW 7.9 mph /  12.7 km/h 19.5 mph /  31.4 km/h 94 % 0.0 in /  0 mm
14:13 7.1 °F /  -13.8 °C 6.0 °F /  -14.4 °C 1010.0 in /  34198.6 hPa WSW 11.9 mph /  19.2 km/h 19.5 mph /  31.4 km/h 94 % 0.0 in /  0 mm
14:18 7.1 °F /  -13.8 °C 6.0 °F /  -14.4 °C 1010.0 in /  34198.6 hPa SSW 7.9 mph /  12.7 km/h 16.9 mph /  27.2 km/h 95 % 0.0 in /  0 mm
14:20 7.1 °F /  -13.8 °C 6.0 °F /  -14.4 °C 1010.0 in /  34198.6 hPa SW 10.5 mph /  16.9 km/h 16.9 mph /  27.2 km/h 95 % 0.0 in /  0 mm
14:25 7.0 °F /  -13.9 °C 6.0 °F /  -14.4 °C 1010.0 in /  34198.6 hPa SSW 5.8 mph /  9.3 km/h 14.0 mph /  22.5 km/h 95 % 0.0 in /  0 mm
14:28 7.0 °F /  -13.9 °C 6.0 °F /  -14.4 °C 1009.0 in /  34164.7 hPa SW 9.7 mph /  15.6 km/h 14.0 mph /  22.5 km/h 95 % 0.0 in /  0 mm
14:30 7.0 °F /  -13.9 °C 6.0 °F /  -14.4 °C 1009.0 in /  34164.7 hPa SSW 5.5 mph /  8.9 km/h 12.2 mph /  19.6 km/h 95 % 0.0 in /  0 mm
14:35 7.0 °F /  -13.9 °C 7.0 °F /  -13.9 °C 1009.0 in /  34164.7 hPa SSW 10.5 mph /  16.9 km/h 12.6 mph /  20.3 km/h 96 % 0.0 in /  0 mm
14:40 7.0 °F /  -13.9 °C 7.0 °F /  -13.9 °C 1009.0 in /  34164.7 hPa SSW 6.1 mph /  9.8 km/h 12.6 mph /  20.3 km/h 96 % 0.0 in /  0 mm
14:45 7.0 °F /  -13.9 °C 7.0 °F /  -13.9 °C 1008.0 in /  34130.9 hPa SSW 5.0 mph /  8 km/h 10.1 mph /  16.3 km/h 96 % 0.0 in /  0 mm
14:49 7.0 °F /  -13.9 °C 7.0 °F /  -13.9 °C 1008.0 in /  34130.9 hPa South 7.9 mph /  12.7 km/h 11.6 mph /  18.7 km/h 96 % 0.0 in /  0 mm
14:53 6.9 °F /  -13.9 °C 7.0 °F /  -13.9 °C 1008.0 in /  34130.9 hPa SSW 9.3 mph /  15 km/h 12.6 mph /  20.3 km/h 97 % 0.0 in /  0 mm
14:58 6.9 °F /  -13.9 °C 7.0 °F /  -13.9 °C 1009.0 in /  34164.7 hPa South 4.3 mph /  6.9 km/h 12.6 mph /  20.3 km/h 97 % 0.0 in /  0 mm
14:59 6.9 °F /  -13.9 °C 7.0 °F /  -13.9 °C 1009.0 in /  34164.7 hPa South 7.6 mph /  12.2 km/h 12.6 mph /  20.3 km/h 97 % 0.0 in /  0 mm
15:03 6.9 °F /  -13.9 °C 7.0 °F /  -13.9 °C 1009.0 in /  34164.7 hPa SSW 9.0 mph /  14.5 km/h 13.0 mph /  20.9 km/h 97 % 0.0 in /  0 mm
15:05 6.9 °F /  -13.9 °C 7.0 °F /  -13.9 °C 1009.0 in /  34164.7 hPa South 5.5 mph /  8.9 km/h 13.0 mph /  20.9 km/h 97 % 0.0 in /  0 mm
15:10 6.9 °F /  -13.9 °C 7.0 °F /  -13.9 °C 1009.0 in /  34164.7 hPa South 17.7 mph /  28.5 km/h 17.7 mph /  28.5 km/h 98 % 0.0 in /  0 mm
15:12 6.9 °F /  -13.9 °C 7.0 °F /  -13.9 °C 1009.0 in /  34164.7 hPa SSE 14.0 mph /  22.5 km/h 17.7 mph /  28.5 km/h 98 % 0.3 in /  7.62 mm
15:17 6.9 °F /  -13.9 °C 7.0 °F /  -13.9 °C 1009.0 in /  34164.7 hPa South 8.7 mph /  14 km/h 17.7 mph /  28.5 km/h 98 % 0.3 in /  7.62 mm
15:20 6.9 °F /  -13.9 °C 7.0 °F /  -13.9 °C 1009.0 in /  34164.7 hPa SSW 14.0 mph /  22.5 km/h 17.7 mph /  28.5 km/h 98 % 0.3 in /  7.62 mm
15:23 6.9 °F /  -13.9 °C 7.0 °F /  -13.9 °C 1009.0 in /  34164.7 hPa SSW 15.8 mph /  25.4 km/h 16.9 mph /  27.2 km/h 98 % 0.3 in /  7.62 mm
15:25 6.9 °F /  -13.9 °C 7.0 °F /  -13.9 °C 1009.0 in /  34164.7 hPa SSW 10.1 mph /  16.3 km/h 16.9 mph /  27.2 km/h 98 % 0.3 in /  7.62 mm
15:31 6.9 °F /  -13.9 °C 7.0 °F /  -13.9 °C 1009.0 in /  34164.7 hPa SSE 9.0 mph /  14.5 km/h 20.1 mph /  32.3 km/h 98 % 0.3 in /  7.62 mm
15:33 6.9 °F /  -13.9 °C 7.0 °F /  -13.9 °C 1009.0 in /  34164.7 hPa South 13.0 mph /  20.9 km/h 20.1 mph /  32.3 km/h 98 % 0.3 in /  7.62 mm
15:34 6.9 °F /  -13.9 °C 7.0 °F /  -13.9 °C 1009.0 in /  34164.7 hPa SSW 11.6 mph /  18.7 km/h 20.1 mph /  32.3 km/h 98 % 0.3 in /  7.62 mm
15:39 6.8 °F /  -14 °C 7.0 °F /  -13.9 °C 1009.0 in /  34164.7 hPa South 11.1 mph /  17.9 km/h 20.1 mph /  32.3 km/h 98 % 0.3 in /  7.62 mm
15:40 6.8 °F /  -14 °C 7.0 °F /  -13.9 °C 1009.0 in /  34164.7 hPa South 14.0 mph /  22.5 km/h 17.7 mph /  28.5 km/h 98 % 0.3 in /  7.62 mm
15:43 6.8 °F /  -14 °C 7.0 °F /  -13.9 °C 1008.0 in /  34130.9 hPa South 9.0 mph /  14.5 km/h 17.7 mph /  28.5 km/h 98 % 0.3 in /  7.62 mm
15:48 6.8 °F /  -14 °C 7.0 °F /  -13.9 °C 1008.0 in /  34130.9 hPa SSE 9.7 mph /  15.6 km/h 17.7 mph /  28.5 km/h 98 % 0.3 in /  7.62 mm
15:53 6.8 °F /  -14 °C 7.0 °F /  -13.9 °C 1008.0 in /  34130.9 hPa South 14.0 mph /  22.5 km/h 16.6 mph /  26.7 km/h 98 % 0.3 in /  7.62 mm
15:54 6.8 °F /  -14 °C 7.0 °F /  -13.9 °C 1008.0 in /  34130.9 hPa SSE 11.9 mph /  19.2 km/h 16.6 mph /  26.7 km/h 98 % 0.3 in /  7.62 mm
15:59 6.8 °F /  -14 °C 7.0 °F /  -13.9 °C 1007.0 in /  34097 hPa SSE 13.7 mph /  22 km/h 16.6 mph /  26.7 km/h 98 % 0.5 in /  12.7 mm
16:04 6.8 °F /  -14 °C 7.0 °F /  -13.9 °C 1007.0 in /  34097 hPa South 10.1 mph /  16.3 km/h 18.3 mph /  29.5 km/h 98 % 0.5 in /  12.7 mm
16:10 6.8 °F /  -14 °C 7.0 °F /  -13.9 °C 1007.0 in /  34097 hPa SSW 15.8 mph /  25.4 km/h 20.1 mph /  32.3 km/h 98 % 0.5 in /  12.7 mm
16:12 6.8 °F /  -14 °C 7.0 °F /  -13.9 °C 1007.0 in /  34097 hPa South 8.7 mph /  14 km/h 20.1 mph /  32.3 km/h 98 % 0.3 in /  7.62 mm
16:17 6.8 °F /  -14 °C 7.0 °F /  -13.9 °C 1007.0 in /  34097 hPa South 15.1 mph /  24.3 km/h 23.3 mph /  37.5 km/h 98 % 0.3 in /  7.62 mm
16:22 6.8 °F /  -14 °C 7.0 °F /  -13.9 °C 1007.0 in /  34097 hPa South 9.7 mph /  15.6 km/h 24.5 mph /  39.4 km/h 98 % 0.3 in /  7.62 mm
16:23 6.8 °F /  -14 °C 7.0 °F /  -13.9 °C 1007.0 in /  34097 hPa South 13.7 mph /  22 km/h 24.5 mph /  39.4 km/h 98 % 0.3 in /  7.62 mm
16:28 6.8 °F /  -14 °C 7.0 °F /  -13.9 °C 1006.0 in /  34063.2 hPa South 12.6 mph /  20.3 km/h 21.6 mph /  34.8 km/h 98 % 0.3 in /  7.62 mm
16:30 6.8 °F /  -14 °C 7.0 °F /  -13.9 °C 1006.0 in /  34063.2 hPa South 12.6 mph /  20.3 km/h 21.6 mph /  34.8 km/h 98 % 0.3 in /  7.62 mm
16:35 6.8 °F /  -14 °C 7.0 °F /  -13.9 °C 1006.0 in /  34063.2 hPa SSW 17.2 mph /  27.7 km/h 18.0 mph /  29 km/h 98 % 0.5 in /  12.7 mm
16:36 6.8 °F /  -14 °C 7.0 °F /  -13.9 °C 1006.0 in /  34063.2 hPa South 9.7 mph /  15.6 km/h 18.0 mph /  29 km/h 98 % 0.5 in /  12.7 mm
16:41 6.9 °F /  -13.9 °C 7.0 °F /  -13.9 °C 1007.0 in /  34097 hPa South 16.9 mph /  27.2 km/h 20.1 mph /  32.3 km/h 98 % 0.5 in /  12.7 mm
16:45 6.9 °F /  -13.9 °C 7.0 °F /  -13.9 °C 1007.0 in /  34097 hPa SSW 12.6 mph /  20.3 km/h 21.2 mph /  34.1 km/h 98 % 0.5 in /  12.7 mm
16:50 7.0 °F /  -13.9 °C 7.0 °F /  -13.9 °C 1007.0 in /  34097 hPa South 19.5 mph /  31.4 km/h 21.2 mph /  34.1 km/h 98 % 0.5 in /  12.7 mm
16:55 7.0 °F /  -13.9 °C 7.0 °F /  -13.9 °C 1007.0 in /  34097 hPa South 14.0 mph /  22.5 km/h 24.8 mph /  39.9 km/h 98 % 0.5 in /  12.7 mm
16:56 7.0 °F /  -13.9 °C 7.0 °F /  -13.9 °C 1007.0 in /  34097 hPa South 14.0 mph /  22.5 km/h 24.8 mph /  39.9 km/h 98 % 0.3 in /  7.62 mm
17:01 7.0 °F /  -13.9 °C 7.0 °F /  -13.9 °C 1007.0 in /  34097 hPa SSE 19.5 mph /  31.4 km/h 24.8 mph /  39.9 km/h 98 % 0.3 in /  7.62 mm
17:06 7.1 °F /  -13.8 °C 7.0 °F /  -13.9 °C 1007.0 in /  34097 hPa South 10.1 mph /  16.3 km/h 20.9 mph /  33.6 km/h 98 % 0.3 in /  7.62 mm
17:09 7.1 °F /  -13.8 °C 7.0 °F /  -13.9 °C 1007.0 in /  34097 hPa SSW 17.7 mph /  28.5 km/h 21.9 mph /  35.2 km/h 98 % 0.3 in /  7.62 mm
17:14 7.1 °F /  -13.8 °C 7.0 °F /  -13.9 °C 1006.0 in /  34063.2 hPa SSW 19.1 mph /  30.7 km/h 22.7 mph /  36.5 km/h 98 % 0.3 in /  7.62 mm
17:17 7.2 °F /  -13.8 °C 7.0 °F /  -13.9 °C 1006.0 in /  34063.2 hPa South 17.7 mph /  28.5 km/h 22.7 mph /  36.5 km/h 98 % 0.3 in /  7.62 mm
17:21 7.2 °F /  -13.8 °C 7.0 °F /  -13.9 °C 1006.0 in /  34063.2 hPa SSW 26.2 mph /  42.2 km/h 26.2 mph /  42.2 km/h 98 % 0.3 in /  7.62 mm
17:23 7.2 °F /  -13.8 °C 7.0 °F /  -13.9 °C 1006.0 in /  34063.2 hPa SSW 25.3 mph /  40.7 km/h 26.2 mph /  42.2 km/h 98 % 0.3 in /  7.62 mm
17:28 7.2 °F /  -13.8 °C 7.0 °F /  -13.9 °C 1006.0 in /  34063.2 hPa South 18.0 mph /  29 km/h 26.2 mph /  42.2 km/h 98 % 0.3 in /  7.62 mm
17:29 7.2 °F /  -13.8 °C 7.0 °F /  -13.9 °C 1006.0 in /  34063.2 hPa South 19.1 mph /  30.7 km/h 26.2 mph /  42.2 km/h 98 % 0.3 in /  7.62 mm
17:34 7.3 °F /  -13.7 °C 7.0 °F /  -13.9 °C 1006.0 in /  34063.2 hPa SSW 19.8 mph /  31.9 km/h 37.8 mph /  60.8 km/h 98 % 0.0 in /  0 mm
17:37 7.3 °F /  -13.7 °C 7.0 °F /  -13.9 °C 1006.0 in /  34063.2 hPa South 16.6 mph /  26.7 km/h 37.8 mph /  60.8 km/h 98 % 0.0 in /  0 mm
17:40 7.3 °F /  -13.7 °C 7.0 °F /  -13.9 °C 1005.0 in /  34029.3 hPa South 16.6 mph /  26.7 km/h 37.8 mph /  60.8 km/h 98 % 0.0 in /  0 mm
17:46 7.3 °F /  -13.7 °C 7.0 °F /  -13.9 °C 1005.0 in /  34029.3 hPa South 23.0 mph /  37 km/h 23.8 mph /  38.3 km/h 98 % 0.0 in /  0 mm
17:51 7.3 °F /  -13.7 °C 7.0 °F /  -13.9 °C 1005.0 in /  34029.3 hPa South 21.2 mph /  34.1 km/h 25.9 mph /  41.7 km/h 98 % 0.3 in /  7.62 mm
17:52 7.3 °F /  -13.7 °C 7.0 °F /  -13.9 °C 1005.0 in /  34029.3 hPa WSW 16.9 mph /  27.2 km/h 28.5 mph /  45.9 km/h 98 % 0.3 in /  7.62 mm
17:57 7.4 °F /  -13.7 °C 7.0 °F /  -13.9 °C 1005.0 in /  34029.3 hPa SSW 11.9 mph /  19.2 km/h 28.5 mph /  45.9 km/h 98 % 0.3 in /  7.62 mm
18:02 7.4 °F /  -13.7 °C 7.0 °F /  -13.9 °C 1005.0 in /  34029.3 hPa SSW 16.9 mph /  27.2 km/h 23.8 mph /  38.3 km/h 98 % 0.3 in /  7.62 mm
18:03 7.4 °F /  -13.7 °C 7.0 °F /  -13.9 °C 1005.0 in /  34029.3 hPa SSW 15.8 mph /  25.4 km/h 23.8 mph /  38.3 km/h 98 % 0.3 in /  7.62 mm
18:12 7.5 °F /  -13.6 °C 8.0 °F /  -13.3 °C 1005.0 in /  34029.3 hPa SW 12.6 mph /  20.3 km/h 27.4 mph /  44.1 km/h 98 % 0.3 in /  7.62 mm
18:13 7.5 °F /  -13.6 °C 8.0 °F /  -13.3 °C 1005.0 in /  34029.3 hPa SSW 10.5 mph /  16.9 km/h 27.4 mph /  44.1 km/h 98 % 0.3 in /  7.62 mm
18:18 7.6 °F /  -13.6 °C 8.0 °F /  -13.3 °C 1005.0 in /  34029.3 hPa SSW 16.3 mph /  26.2 km/h 28.5 mph /  45.9 km/h 98 % 0.3 in /  7.62 mm
18:22 7.6 °F /  -13.6 °C 8.0 °F /  -13.3 °C 1005.0 in /  34029.3 hPa SSW 17.2 mph /  27.7 km/h 28.5 mph /  45.9 km/h 98 % 0.3 in /  7.62 mm
18:27 7.7 °F /  -13.5 °C 8.0 °F /  -13.3 °C 1005.0 in /  34029.3 hPa SSW 13.0 mph /  20.9 km/h 25.3 mph /  40.7 km/h 98 % 0.3 in /  7.62 mm
18:28 7.7 °F /  -13.5 °C 8.0 °F /  -13.3 °C 1005.0 in /  34029.3 hPa SW 13.0 mph /  20.9 km/h 25.3 mph /  40.7 km/h 98 % 0.3 in /  7.62 mm
18:33 7.8 °F /  -13.4 °C 8.0 °F /  -13.3 °C 1005.0 in /  34029.3 hPa SSW 17.7 mph /  28.5 km/h 25.3 mph /  40.7 km/h 98 % 0.3 in /  7.62 mm
18:34 7.8 °F /  -13.4 °C 8.0 °F /  -13.3 °C 1005.0 in /  34029.3 hPa SW 12.2 mph /  19.6 km/h 25.3 mph /  40.7 km/h 98 % 0.3 in /  7.62 mm
18:39 7.8 °F /  -13.4 °C 8.0 °F /  -13.3 °C 1005.0 in /  34029.3 hPa SSW 10.1 mph /  16.3 km/h 19.8 mph /  31.9 km/h 98 % 0.3 in /  7.62 mm
18:42 7.9 °F /  -13.4 °C 8.0 °F /  -13.3 °C 1005.0 in /  34029.3 hPa SSW 19.5 mph /  31.4 km/h 21.2 mph /  34.1 km/h 98 % 0.3 in /  7.62 mm
18:47 7.9 °F /  -13.4 °C 8.0 °F /  -13.3 °C 1005.0 in /  34029.3 hPa SW 19.5 mph /  31.4 km/h 21.2 mph /  34.1 km/h 98 % 0.3 in /  7.62 mm
18:49 7.9 °F /  -13.4 °C 8.0 °F /  -13.3 °C 1005.0 in /  34029.3 hPa SW 10.5 mph /  16.9 km/h 21.2 mph /  34.1 km/h 98 % 0.3 in /  7.62 mm
18:52 8.0 °F /  -13.3 °C 8.0 °F /  -13.3 °C 1005.0 in /  34029.3 hPa SSW 12.6 mph /  20.3 km/h 19.5 mph /  31.4 km/h 98 % 0.0 in /  0 mm
18:57 8.0 °F /  -13.3 °C 8.0 °F /  -13.3 °C 1005.0 in /  34029.3 hPa SSW 9.7 mph /  15.6 km/h 17.2 mph /  27.7 km/h 98 % 0.0 in /  0 mm
19:00 8.1 °F /  -13.3 °C 8.0 °F /  -13.3 °C 1005.0 in /  34029.3 hPa SSW 11.9 mph /  19.2 km/h 20.9 mph /  33.6 km/h 98 % 0.0 in /  0 mm
19:02 8.1 °F /  -13.3 °C 8.0 °F /  -13.3 °C 1005.0 in /  34029.3 hPa SW 9.7 mph /  15.6 km/h 20.9 mph /  33.6 km/h 98 % 0.0 in /  0 mm
19:06 8.1 °F /  -13.3 °C 8.0 °F /  -13.3 °C 1005.0 in /  34029.3 hPa SSW 7.9 mph /  12.7 km/h 20.9 mph /  33.6 km/h 98 % 0.0 in /  0 mm
19:11 8.2 °F /  -13.2 °C 8.0 °F /  -13.3 °C 1003.9 in /  33992.1 hPa South 14.0 mph /  22.5 km/h 17.2 mph /  27.7 km/h 98 % 0.0 in /  0 mm
19:16 8.3 °F /  -13.2 °C 9.0 °F /  -12.8 °C 1003.9 in /  33992.1 hPa SW 15.4 mph /  24.8 km/h 17.2 mph /  27.7 km/h 98 % 0.0 in /  0 mm
19:17 8.3 °F /  -13.2 °C 9.0 °F /  -12.8 °C 1003.9 in /  33992.1 hPa SW 13.7 mph /  22 km/h 17.2 mph /  27.7 km/h 98 % 0.0 in /  0 mm
19:19 8.3 °F /  -13.2 °C 9.0 °F /  -12.8 °C 1003.9 in /  33992.1 hPa SSW 14.0 mph /  22.5 km/h 17.2 mph /  27.7 km/h 98 % 0.0 in /  0 mm
19:24 8.4 °F /  -13.1 °C 9.0 °F /  -12.8 °C 1003.9 in /  33992.1 hPa SSW 6.9 mph /  11.1 km/h 17.7 mph /  28.5 km/h 98 % 0.0 in /  0 mm
19:25 8.4 °F /  -13.1 °C 9.0 °F /  -12.8 °C 1003.9 in /  33992.1 hPa SSW 9.3 mph /  15 km/h 17.7 mph /  28.5 km/h 98 % 0.0 in /  0 mm
19:30 8.4 °F /  -13.1 °C 9.0 °F /  -12.8 °C 1003.9 in /  33992.1 hPa SW 9.7 mph /  15.6 km/h 17.7 mph /  28.5 km/h 98 % 0.0 in /  0 mm
19:32 8.4 °F /  -13.1 °C 9.0 °F /  -12.8 °C 1003.9 in /  33992.1 hPa SSW 9.7 mph /  15.6 km/h 13.7 mph /  22 km/h 98 % 0.0 in /  0 mm
19:37 8.5 °F /  -13.1 °C 9.0 °F /  -12.8 °C 1003.9 in /  33992.1 hPa SSW 7.9 mph /  12.7 km/h 12.6 mph /  20.3 km/h 98 % 0.0 in /  0 mm
19:42 8.5 °F /  -13.1 °C 9.0 °F /  -12.8 °C 1002.9 in /  33958.2 hPa South 9.7 mph /  15.6 km/h 12.2 mph /  19.6 km/h 98 % 0.0 in /  0 mm
19:43 8.5 °F /  -13.1 °C 9.0 °F /  -12.8 °C 1002.9 in /  33958.2 hPa SSW 10.1 mph /  16.3 km/h 12.2 mph /  19.6 km/h 98 % 0.0 in /  0 mm
19:48 8.6 °F /  -13 °C 9.0 °F /  -12.8 °C 1002.9 in /  33958.2 hPa SW 8.7 mph /  14 km/h 15.4 mph /  24.8 km/h 98 % 0.0 in /  0 mm
19:50 8.6 °F /  -13 °C 9.0 °F /  -12.8 °C 1002.9 in /  33958.2 hPa SSW 8.7 mph /  14 km/h 15.4 mph /  24.8 km/h 98 % 0.0 in /  0 mm
19:54 8.7 °F /  -12.9 °C 9.0 °F /  -12.8 °C 1002.9 in /  33958.2 hPa SSW 6.9 mph /  11.1 km/h 15.4 mph /  24.8 km/h 98 % 0.0 in /  0 mm
19:59 8.7 °F /  -12.9 °C 9.0 °F /  -12.8 °C 1002.9 in /  33958.2 hPa SSW 5.0 mph /  8 km/h 12.2 mph /  19.6 km/h 98 % 0.0 in /  0 mm
20:06 8.8 °F /  -12.9 °C 9.0 °F /  -12.8 °C 1002.9 in /  33958.2 hPa SSW 10.1 mph /  16.3 km/h 13.0 mph /  20.9 km/h 98 % 0.0 in /  0 mm
20:12 8.9 °F /  -12.8 °C 9.0 °F /  -12.8 °C 1002.9 in /  33958.2 hPa SW 8.7 mph /  14 km/h 14.0 mph /  22.5 km/h 98 % 0.0 in /  0 mm
20:17 9.0 °F /  -12.8 °C 9.0 °F /  -12.8 °C 1002.9 in /  33958.2 hPa SW 10.5 mph /  16.9 km/h 14.0 mph /  22.5 km/h 98 % 0.0 in /  0 mm
20:20 9.1 °F /  -12.7 °C 9.0 °F /  -12.8 °C 1002.9 in /  33958.2 hPa SW 9.7 mph /  15.6 km/h 14.0 mph /  22.5 km/h 98 % 0.0 in /  0 mm
20:25 9.2 °F /  -12.7 °C 9.0 °F /  -12.8 °C 1002.9 in /  33958.2 hPa WSW 9.0 mph /  14.5 km/h 12.2 mph /  19.6 km/h 98 % 0.0 in /  0 mm
20:26 9.2 °F /  -12.7 °C 9.0 °F /  -12.8 °C 1002.9 in /  33958.2 hPa SSW 7.9 mph /  12.7 km/h 12.2 mph /  19.6 km/h 98 % 0.0 in /  0 mm
20:31 9.3 °F /  -12.6 °C 9.0 °F /  -12.8 °C 1002.9 in /  33958.2 hPa SSW 9.0 mph /  14.5 km/h 14.8 mph /  23.8 km/h 98 % 0.0 in /  0 mm
20:36 9.4 °F /  -12.6 °C 9.0 °F /  -12.8 °C 1002.9 in /  33958.2 hPa SSW 13.7 mph /  22 km/h 14.8 mph /  23.8 km/h 98 % 0.0 in /  0 mm
20:41 9.5 °F /  -12.5 °C 10.0 °F /  -12.2 °C 1002.9 in /  33958.2 hPa South 12.6 mph /  20.3 km/h 13.7 mph /  22 km/h 98 % 0.0 in /  0 mm
20:43 9.5 °F /  -12.5 °C 10.0 °F /  -12.2 °C 1002.9 in /  33958.2 hPa SW 9.3 mph /  15 km/h 13.7 mph /  22 km/h 98 % 0.0 in /  0 mm
20:46 9.6 °F /  -12.4 °C 10.0 °F /  -12.2 °C 1002.9 in /  33958.2 hPa WSW 10.1 mph /  16.3 km/h 13.7 mph /  22 km/h 98 % 0.0 in /  0 mm
20:48 9.7 °F /  -12.4 °C 10.0 °F /  -12.2 °C 1002.9 in /  33958.2 hPa SW 9.0 mph /  14.5 km/h 14.0 mph /  22.5 km/h 98 % 0.0 in /  0 mm
20:53 9.8 °F /  -12.3 °C 10.0 °F /  -12.2 °C 1002.9 in /  33958.2 hPa SW 10.5 mph /  16.9 km/h 14.0 mph /  22.5 km/h 98 % 0.0 in /  0 mm
20:56 9.8 °F /  -12.3 °C 10.0 °F /  -12.2 °C 1002.9 in /  33958.2 hPa WSW 6.4 mph /  10.3 km/h 14.0 mph /  22.5 km/h 98 % 0.0 in /  0 mm
21:01 10.0 °F /  -12.2 °C 10.0 °F /  -12.2 °C 1002.9 in /  33958.2 hPa SW 11.6 mph /  18.7 km/h 13.7 mph /  22 km/h 98 % 0.0 in /  0 mm
21:04 10.0 °F /  -12.2 °C 10.0 °F /  -12.2 °C 1002.9 in /  33958.2 hPa SW 13.7 mph /  22 km/h 14.3 mph /  23 km/h 98 % 0.0 in /  0 mm
21:09 10.2 °F /  -12.1 °C 10.0 °F /  -12.2 °C 1002.9 in /  33958.2 hPa SSW 10.1 mph /  16.3 km/h 16.9 mph /  27.2 km/h 98 % 0.0 in /  0 mm
21:10 10.2 °F /  -12.1 °C 10.0 °F /  -12.2 °C 1002.9 in /  33958.2 hPa SW 9.3 mph /  15 km/h 16.9 mph /  27.2 km/h 98 % 0.0 in /  0 mm
21:14 10.3 °F /  -12.1 °C 10.0 °F /  -12.2 °C 1001.9 in /  33924.3 hPa WSW 16.9 mph /  27.2 km/h 16.9 mph /  27.2 km/h 98 % 0.0 in /  0 mm
21:19 10.4 °F /  -12 °C 10.0 °F /  -12.2 °C 1001.9 in /  33924.3 hPa SW 9.7 mph /  15.6 km/h 23.3 mph /  37.5 km/h 98 % 0.0 in /  0 mm
21:20 10.4 °F /  -12 °C 10.0 °F /  -12.2 °C 1001.9 in /  33924.3 hPa WSW 12.2 mph /  19.6 km/h 23.3 mph /  37.5 km/h 98 % 0.0 in /  0 mm
21:25 10.4 °F /  -12 °C 10.0 °F /  -12.2 °C 1001.9 in /  33924.3 hPa SW 12.2 mph /  19.6 km/h 17.2 mph /  27.7 km/h 98 % 0.0 in /  0 mm
21:26 10.4 °F /  -12 °C 10.0 °F /  -12.2 °C 1001.9 in /  33924.3 hPa SW 15.8 mph /  25.4 km/h 17.2 mph /  27.7 km/h 98 % 0.0 in /  0 mm
21:31 10.4 °F /  -12 °C 10.0 °F /  -12.2 °C 1001.9 in /  33924.3 hPa SW 13.0 mph /  20.9 km/h 17.7 mph /  28.5 km/h 98 % 0.0 in /  0 mm
21:36 10.4 °F /  -12 °C 10.0 °F /  -12.2 °C 1001.9 in /  33924.3 hPa SSW 12.6 mph /  20.3 km/h 17.7 mph /  28.5 km/h 98 % 0.0 in /  0 mm
21:37 10.5 °F /  -11.9 °C 11.0 °F /  -11.7 °C 1001.9 in /  33924.3 hPa WSW 17.7 mph /  28.5 km/h 17.7 mph /  28.5 km/h 98 % 0.0 in /  0 mm
21:42 10.5 °F /  -11.9 °C 11.0 °F /  -11.7 °C 1000.9 in /  33890.5 hPa WSW 13.0 mph /  20.9 km/h 19.5 mph /  31.4 km/h 98 % 0.0 in /  0 mm
21:47 10.5 °F /  -11.9 °C 11.0 °F /  -11.7 °C 1000.9 in /  33890.5 hPa WSW 17.7 mph /  28.5 km/h 19.5 mph /  31.4 km/h 98 % 0.0 in /  0 mm
21:53 10.6 °F /  -11.9 °C 11.0 °F /  -11.7 °C 1000.9 in /  33890.5 hPa SW 15.8 mph /  25.4 km/h 21.6 mph /  34.8 km/h 98 % 0.0 in /  0 mm
21:54 10.6 °F /  -11.9 °C 11.0 °F /  -11.7 °C 1000.9 in /  33890.5 hPa SSW 17.2 mph /  27.7 km/h 21.6 mph /  34.8 km/h 98 % 0.0 in /  0 mm
21:59 10.7 °F /  -11.8 °C 11.0 °F /  -11.7 °C 1001.9 in /  33924.3 hPa SW 12.6 mph /  20.3 km/h 21.6 mph /  34.8 km/h 98 % 0.0 in /  0 mm
22:04 10.7 °F /  -11.8 °C 11.0 °F /  -11.7 °C 1001.9 in /  33924.3 hPa WSW 20.9 mph /  33.6 km/h 25.6 mph /  41.2 km/h 98 % 0.0 in /  0 mm
22:06 10.7 °F /  -11.8 °C 11.0 °F /  -11.7 °C 1001.9 in /  33924.3 hPa WSW 13.7 mph /  22 km/h 25.6 mph /  41.2 km/h 98 % 0.0 in /  0 mm
22:11 10.8 °F /  -11.8 °C 11.0 °F /  -11.7 °C 1000.9 in /  33890.5 hPa SW 12.6 mph /  20.3 km/h 28.5 mph /  45.9 km/h 98 % 0.0 in /  0 mm
22:12 10.8 °F /  -11.8 °C 11.0 °F /  -11.7 °C 1000.9 in /  33890.5 hPa SSW 18.0 mph /  29 km/h 28.5 mph /  45.9 km/h 98 % 0.0 in /  0 mm
22:17 10.9 °F /  -11.7 °C 11.0 °F /  -11.7 °C 1000.9 in /  33890.5 hPa WSW 20.1 mph /  32.3 km/h 28.5 mph /  45.9 km/h 98 % 0.0 in /  0 mm
22:22 10.9 °F /  -11.7 °C 11.0 °F /  -11.7 °C 1000.9 in /  33890.5 hPa WSW 19.8 mph /  31.9 km/h 31.4 mph /  50.5 km/h 98 % 0.0 in /  0 mm
22:25 11.0 °F /  -11.7 °C 11.0 °F /  -11.7 °C 1000.9 in /  33890.5 hPa WSW 14.0 mph /  22.5 km/h 31.4 mph /  50.5 km/h 98 % 0.0 in /  0 mm
22:30 11.0 °F /  -11.7 °C 11.0 °F /  -11.7 °C 1000.9 in /  33890.5 hPa SSW 20.6 mph /  33.2 km/h 21.9 mph /  35.2 km/h 98 % 0.0 in /  0 mm
22:33 11.0 °F /  -11.7 °C 11.0 °F /  -11.7 °C 1000.9 in /  33890.5 hPa WSW 14.0 mph /  22.5 km/h 21.9 mph /  35.2 km/h 98 % 0.0 in /  0 mm
22:36 11.0 °F /  -11.7 °C 11.0 °F /  -11.7 °C 1000.9 in /  33890.5 hPa SW 24.5 mph /  39.4 km/h 24.5 mph /  39.4 km/h 98 % 0.0 in /  0 mm
22:42 11.1 °F /  -11.6 °C 11.0 °F /  -11.7 °C 999.9 in /  33856.6 hPa WSW 18.3 mph /  29.5 km/h 24.5 mph /  39.4 km/h 98 % 0.0 in /  0 mm
22:47 11.1 °F /  -11.6 °C 11.0 °F /  -11.7 °C 999.9 in /  33856.6 hPa WSW 19.1 mph /  30.7 km/h 23.3 mph /  37.5 km/h 98 % 0.0 in /  0 mm
22:48 11.1 °F /  -11.6 °C 11.0 °F /  -11.7 °C 999.9 in /  33856.6 hPa SSW 16.6 mph /  26.7 km/h 23.3 mph /  37.5 km/h 98 % 0.0 in /  0 mm
22:54 11.1 °F /  -11.6 °C 11.0 °F /  -11.7 °C 999.9 in /  33856.6 hPa SSW 20.1 mph /  32.3 km/h 23.3 mph /  37.5 km/h 97 % 0.0 in /  0 mm
22:55 11.1 °F /  -11.6 °C 11.0 °F /  -11.7 °C 999.9 in /  33856.6 hPa SSW 16.6 mph /  26.7 km/h 23.3 mph /  37.5 km/h 97 % 0.0 in /  0 mm
22:59 11.1 °F /  -11.6 °C 11.0 °F /  -11.7 °C 997.9 in /  33788.9 hPa SSW 15.8 mph /  25.4 km/h 23.8 mph /  38.3 km/h 97 % 0.0 in /  0 mm
23:04 11.1 °F /  -11.6 °C 11.0 °F /  -11.7 °C 997.9 in /  33788.9 hPa SSW 17.2 mph /  27.7 km/h 27.0 mph /  43.5 km/h 97 % 0.0 in /  0 mm
23:06 11.1 °F /  -11.6 °C 11.0 °F /  -11.7 °C 997.9 in /  33788.9 hPa SW 20.6 mph /  33.2 km/h 27.0 mph /  43.5 km/h 97 % 0.0 in /  0 mm
23:10 11.1 °F /  -11.6 °C 11.0 °F /  -11.7 °C 997.9 in /  33788.9 hPa SW 20.9 mph /  33.6 km/h 27.0 mph /  43.5 km/h 96 % 0.0 in /  0 mm
23:12 11.1 °F /  -11.6 °C 11.0 °F /  -11.7 °C 998.9 in /  33822.8 hPa SW 13.0 mph /  20.9 km/h 27.0 mph /  43.5 km/h 96 % 0.0 in /  0 mm
23:16 11.0 °F /  -11.7 °C 11.0 °F /  -11.7 °C 998.9 in /  33822.8 hPa WSW 16.9 mph /  27.2 km/h 21.6 mph /  34.8 km/h 96 % 0.0 in /  0 mm
23:19 11.0 °F /  -11.7 °C 11.0 °F /  -11.7 °C 998.9 in /  33822.8 hPa SW 13.0 mph /  20.9 km/h 25.3 mph /  40.7 km/h 96 % 0.0 in /  0 mm
23:24 11.0 °F /  -11.7 °C 11.0 °F /  -11.7 °C 998.9 in /  33822.8 hPa SW 16.6 mph /  26.7 km/h 25.3 mph /  40.7 km/h 96 % 0.0 in /  0 mm
23:29 11.0 °F /  -11.7 °C 10.0 °F /  -12.2 °C 997.9 in /  33788.9 hPa SSW 11.6 mph /  18.7 km/h 24.8 mph /  39.9 km/h 95 % 0.0 in /  0 mm
23:31 11.0 °F /  -11.7 °C 10.0 °F /  -12.2 °C 997.9 in /  33788.9 hPa SW 13.0 mph /  20.9 km/h 24.8 mph /  39.9 km/h 95 % 0.0 in /  0 mm
23:37 11.1 °F /  -11.6 °C 10.0 °F /  -12.2 °C 997.9 in /  33788.9 hPa SW 16.6 mph /  26.7 km/h 23.8 mph /  38.3 km/h 95 % 0.0 in /  0 mm
23:38 11.1 °F /  -11.6 °C 10.0 °F /  -12.2 °C 997.9 in /  33788.9 hPa SSW 14.3 mph /  23 km/h 23.8 mph /  38.3 km/h 95 % 0.0 in /  0 mm
23:43 11.0 °F /  -11.7 °C 10.0 °F /  -12.2 °C 997.9 in /  33788.9 hPa SSW 11.9 mph /  19.2 km/h 23.8 mph /  38.3 km/h 95 % 0.0 in /  0 mm
23:48 10.9 °F /  -11.7 °C 11.0 °F /  -11.7 °C 997.9 in /  33788.9 hPa SSW 12.6 mph /  20.3 km/h 19.8 mph /  31.9 km/h 96 % 0.0 in /  0 mm
23:49 10.9 °F /  -11.7 °C 11.0 °F /  -11.7 °C 997.9 in /  33788.9 hPa SSW 9.0 mph /  14.5 km/h 19.8 mph /  31.9 km/h 96 % 0.0 in /  0 mm
23:50 10.9 °F /  -11.7 °C 11.0 °F /  -11.7 °C 997.9 in /  33788.9 hPa SSW 7.9 mph /  12.7 km/h 19.8 mph /  31.9 km/h 96 % 0.0 in /  0 mm
23:55 10.9 °F /  -11.7 °C 11.0 °F /  -11.7 °C 997.9 in /  33788.9 hPa SSW 10.5 mph /  16.9 km/h 21.2 mph /  34.1 km/h 96 % 0.0 in /  0 mm
23:58 10.9 °F /  -11.7 °C 11.0 °F /  -11.7 °C 996.2 in /  33731.3 hPa South 12.2 mph /  19.6 km/h 21.2 mph /  34.1 km/h 96 % 0.0 in /  0 mm
Le Gheer Warneton
Courtoisie de Weather Underground - 2.75 mb

Mise a jour : 21/02/2018 02:22:11
Généré par Cumulus 1.9.4 (1099)